createdAt,value
2023-12-27T00:00:23.650Z,618.00
2023-12-27T00:01:23.731Z,616.00
2023-12-27T00:02:23.733Z,616.00
2023-12-27T00:03:23.862Z,617.00
2023-12-27T00:04:24.009Z,616.00
2023-12-27T00:05:23.845Z,618.00
2023-12-27T00:06:24.130Z,617.00
2023-12-27T00:07:23.920Z,616.00
2023-12-27T00:08:23.938Z,618.00
2023-12-27T00:09:24.038Z,616.00
2023-12-27T00:10:24.057Z,619.00
2023-12-27T00:11:24.536Z,619.00
2023-12-27T00:12:24.112Z,616.00
2023-12-27T00:13:24.103Z,618.00
2023-12-27T00:14:24.129Z,616.00
2023-12-27T00:15:24.245Z,615.00
2023-12-27T00:16:24.554Z,618.00
2023-12-27T00:17:24.316Z,618.00
2023-12-27T00:18:24.446Z,617.00
2023-12-27T00:19:24.440Z,617.00
2023-12-27T00:20:24.320Z,619.00
2023-12-27T00:21:24.461Z,618.00
2023-12-27T00:22:24.373Z,616.00
2023-12-27T00:23:24.461Z,619.00
2023-12-27T00:24:24.499Z,618.00
2023-12-27T00:25:24.448Z,617.00
2023-12-27T00:26:24.529Z,620.00
2023-12-27T00:27:24.551Z,617.00
2023-12-27T00:28:24.526Z,617.00
2023-12-27T00:29:24.588Z,618.00
2023-12-27T00:30:24.703Z,617.00
2023-12-27T00:31:24.719Z,618.00
2023-12-27T00:32:24.741Z,617.00
2023-12-27T00:33:24.893Z,616.00
2023-12-27T00:34:24.867Z,617.00
2023-12-27T00:35:24.773Z,617.00
2023-12-27T00:36:24.851Z,618.00
2023-12-27T00:37:24.853Z,616.00
2023-12-27T00:38:24.887Z,618.00
2023-12-27T00:39:25.048Z,617.00
2023-12-27T00:40:24.905Z,614.00
2023-12-27T00:41:25.088Z,620.00
2023-12-27T00:42:25.055Z,616.00
2023-12-27T00:43:25.023Z,619.00
2023-12-27T00:44:25.023Z,619.00
2023-12-27T00:45:25.047Z,617.00
2023-12-27T00:46:25.138Z,616.00
2023-12-27T00:47:25.111Z,619.00
2023-12-27T00:48:25.229Z,617.00
2023-12-27T00:49:25.265Z,616.00
2023-12-27T00:50:25.178Z,619.00
2023-12-27T00:51:25.307Z,619.00
2023-12-27T00:52:25.295Z,616.00
2023-12-27T00:53:25.276Z,617.00
2023-12-27T00:54:25.263Z,615.00
2023-12-27T00:55:25.316Z,617.00
2023-12-27T00:56:25.294Z,616.00
2023-12-27T00:57:25.441Z,615.00
2023-12-27T00:58:25.341Z,616.00
2023-12-27T00:59:25.416Z,615.00
2023-12-27T01:00:25.463Z,616.00
2023-12-27T01:01:25.568Z,615.00
2023-12-27T01:02:25.424Z,616.00
2023-12-27T01:03:25.566Z,616.00
2023-12-27T01:04:25.732Z,617.00
2023-12-27T01:05:25.656Z,617.00
2023-12-27T01:06:25.698Z,616.00
2023-12-27T01:07:25.735Z,618.00
2023-12-27T01:08:25.784Z,617.00
2023-12-27T01:09:25.815Z,617.00
2023-12-27T01:10:25.873Z,616.00
2023-12-27T01:11:25.868Z,617.00
2023-12-27T01:12:25.949Z,617.00
2023-12-27T01:13:25.923Z,616.00
2023-12-27T01:14:25.956Z,617.00
2023-12-27T01:15:25.971Z,615.00
2023-12-27T01:16:26.096Z,616.00
2023-12-27T01:17:26.074Z,618.00
2023-12-27T01:18:26.122Z,618.00
2023-12-27T01:19:26.142Z,614.00
2023-12-27T01:20:26.150Z,616.00
2023-12-27T01:21:26.223Z,617.00
2023-12-27T01:22:26.207Z,615.00
2023-12-27T01:23:26.240Z,614.00
2023-12-27T01:24:26.307Z,615.00
2023-12-27T01:25:26.311Z,616.00
2023-12-27T01:26:26.351Z,616.00
2023-12-27T01:27:26.398Z,616.00
2023-12-27T01:28:26.415Z,616.00
2023-12-27T01:29:26.446Z,615.00
2023-12-27T01:30:26.558Z,615.00
2023-12-27T01:31:26.654Z,615.00
2023-12-27T01:32:26.644Z,615.00
2023-12-27T01:33:26.788Z,615.00
2023-12-27T01:34:26.752Z,615.00
2023-12-27T01:35:26.796Z,617.00
2023-12-27T01:36:27.099Z,616.00
2023-12-27T01:37:26.821Z,616.00
2023-12-27T01:38:26.839Z,617.00
2023-12-27T01:39:26.860Z,618.00
2023-12-27T01:40:26.900Z,616.00
2023-12-27T01:41:26.968Z,617.00
2023-12-27T01:42:27.053Z,616.00
2023-12-27T01:43:27.013Z,616.00
2023-12-27T01:44:27.073Z,616.00
2023-12-27T01:45:27.171Z,615.00
2023-12-27T01:46:27.187Z,616.00
2023-12-27T01:47:27.244Z,614.00
2023-12-27T01:48:27.508Z,617.00
2023-12-27T01:49:27.329Z,616.00
2023-12-27T01:50:27.346Z,617.00
2023-12-27T01:51:27.431Z,616.00
2023-12-27T01:52:27.445Z,617.00
2023-12-27T01:53:27.444Z,616.00
2023-12-27T01:54:27.490Z,616.00
2023-12-27T01:55:27.517Z,615.00
2023-12-27T01:56:27.571Z,614.00
2023-12-27T01:57:27.586Z,616.00
2023-12-27T01:58:27.590Z,615.00
2023-12-27T01:59:27.576Z,615.00
2023-12-27T02:00:27.737Z,615.00
2023-12-27T02:01:27.719Z,616.00
2023-12-27T02:02:27.674Z,612.00
2023-12-27T02:03:27.809Z,616.00
2023-12-27T02:04:27.810Z,617.00
2023-12-27T02:05:27.819Z,614.00
2023-12-27T02:06:27.806Z,616.00
2023-12-27T02:08:27.838Z,616.00
2023-12-27T02:09:27.888Z,615.00
2023-12-27T02:10:27.864Z,615.00
2023-12-27T02:11:27.925Z,614.00
2023-12-27T02:12:27.956Z,616.00
2023-12-27T02:13:27.959Z,617.00
2023-12-27T02:14:27.964Z,615.00
2023-12-27T02:15:28.039Z,615.00
2023-12-27T02:16:28.019Z,614.00
2023-12-27T02:17:28.192Z,616.00
2023-12-27T02:18:28.147Z,614.00
2023-12-27T02:19:28.152Z,616.00
2023-12-27T02:20:28.078Z,613.00
2023-12-27T02:21:28.144Z,615.00
2023-12-27T02:22:28.135Z,615.00
2023-12-27T02:23:28.135Z,615.00
2023-12-27T02:24:28.207Z,614.00
2023-12-27T02:25:28.191Z,615.00
2023-12-27T02:26:28.253Z,614.00
2023-12-27T02:27:28.356Z,615.00
2023-12-27T02:28:28.265Z,617.00
2023-12-27T02:29:28.320Z,614.00
2023-12-27T02:30:28.428Z,615.00
2023-12-27T02:31:28.701Z,615.00
2023-12-27T02:32:28.461Z,615.00
2023-12-27T02:33:28.599Z,614.00
2023-12-27T02:34:28.642Z,615.00
2023-12-27T02:35:28.570Z,615.00
2023-12-27T02:36:28.583Z,616.00
2023-12-27T02:37:28.524Z,615.00
2023-12-27T02:38:28.555Z,613.00
2023-12-27T02:39:28.517Z,615.00
2023-12-27T02:40:28.554Z,613.00
2023-12-27T02:41:28.568Z,615.00
2023-12-27T02:42:28.607Z,614.00
2023-12-27T02:43:28.538Z,614.00
2023-12-27T02:44:28.588Z,616.00
2023-12-27T02:45:28.595Z,613.00
2023-12-27T02:46:28.599Z,614.00
2023-12-27T02:47:28.606Z,613.00
2023-12-27T02:48:28.742Z,614.00
2023-12-27T02:49:28.753Z,615.00
2023-12-27T02:50:28.616Z,615.00
2023-12-27T02:51:28.641Z,615.00
2023-12-27T02:52:28.609Z,613.00
2023-12-27T02:53:28.662Z,614.00
2023-12-27T02:54:28.662Z,613.00
2023-12-27T02:55:28.656Z,615.00
2023-12-27T02:56:29.114Z,614.00
2023-12-27T02:57:28.751Z,614.00
2023-12-27T02:58:28.713Z,615.00
2023-12-27T02:59:28.777Z,615.00
2023-12-27T03:00:28.848Z,615.00
2023-12-27T03:01:29.107Z,614.00
2023-12-27T03:02:28.876Z,614.00
2023-12-27T03:03:28.903Z,615.00
2023-12-27T03:04:30.237Z,613.00
2023-12-27T03:05:29.009Z,614.00
2023-12-27T03:06:28.972Z,614.00
2023-12-27T03:07:28.950Z,614.00
2023-12-27T03:08:29.008Z,613.00
2023-12-27T03:09:29.094Z,612.00
2023-12-27T03:10:28.954Z,613.00
2023-12-27T03:11:29.015Z,614.00
2023-12-27T03:12:29.135Z,613.00
2023-12-27T03:13:29.033Z,613.00
2023-12-27T03:14:29.037Z,614.00
2023-12-27T03:15:29.139Z,610.00
2023-12-27T03:16:29.116Z,613.00
2023-12-27T03:17:29.193Z,615.00
2023-12-27T03:18:29.334Z,615.00
2023-12-27T03:19:29.315Z,614.00
2023-12-27T03:20:29.230Z,613.00
2023-12-27T03:21:29.405Z,614.00
2023-12-27T03:22:29.251Z,613.00
2023-12-27T03:23:29.311Z,613.00
2023-12-27T03:24:29.389Z,613.00
2023-12-27T03:25:29.325Z,612.00
2023-12-27T03:26:29.367Z,614.00
2023-12-27T03:27:29.450Z,613.00
2023-12-27T03:28:29.353Z,614.00
2023-12-27T03:29:29.399Z,614.00
2023-12-27T03:30:29.504Z,613.00
2023-12-27T03:31:29.551Z,615.00
2023-12-27T03:32:29.453Z,616.00
2023-12-27T03:33:29.605Z,614.00
2023-12-27T03:34:29.625Z,611.00
2023-12-27T03:35:29.481Z,614.00
2023-12-27T03:36:29.517Z,612.00
2023-12-27T03:37:29.511Z,612.00
2023-12-27T03:38:29.501Z,611.00
2023-12-27T03:39:29.583Z,614.00
2023-12-27T03:40:29.518Z,612.00
2023-12-27T03:41:29.521Z,612.00
2023-12-27T03:42:29.593Z,611.00
2023-12-27T03:43:29.548Z,611.00
2023-12-27T03:44:29.552Z,612.00
2023-12-27T03:45:29.618Z,612.00
2023-12-27T03:46:29.557Z,612.00
2023-12-27T03:47:29.635Z,614.00
2023-12-27T03:48:29.726Z,614.00
2023-12-27T03:49:29.686Z,613.00
2023-12-27T03:50:29.627Z,612.00
2023-12-27T03:51:30.125Z,612.00
2023-12-27T03:52:29.740Z,612.00
2023-12-27T03:53:29.763Z,611.00
2023-12-27T03:54:29.948Z,612.00
2023-12-27T03:55:29.832Z,611.00
2023-12-27T03:56:29.863Z,613.00
2023-12-27T03:57:29.872Z,610.00
2023-12-27T03:58:29.781Z,611.00
2023-12-27T03:59:29.808Z,609.00
2023-12-27T04:00:29.881Z,612.00
2023-12-27T04:01:29.917Z,611.00
2023-12-27T04:02:29.902Z,610.00
2023-12-27T04:03:32.509Z,610.00
2023-12-27T04:04:29.937Z,612.00
2023-12-27T04:05:29.934Z,612.00
2023-12-27T04:06:29.958Z,612.00
2023-12-27T04:07:29.914Z,611.00
2023-12-27T04:08:29.920Z,612.00
2023-12-27T04:09:29.948Z,611.00
2023-12-27T04:10:29.941Z,610.00
2023-12-27T04:11:29.951Z,610.00
2023-12-27T04:12:30.026Z,611.00
2023-12-27T04:13:29.922Z,611.00
2023-12-27T04:14:29.927Z,609.00
2023-12-27T04:15:29.966Z,611.00
2023-12-27T04:16:30.133Z,609.00
2023-12-27T04:17:29.992Z,611.00
2023-12-27T04:18:30.045Z,611.00
2023-12-27T04:19:29.975Z,610.00
2023-12-27T04:20:29.948Z,611.00
2023-12-27T04:21:29.961Z,609.00
2023-12-27T04:22:29.919Z,610.00
2023-12-27T04:23:29.987Z,610.00
2023-12-27T04:24:29.993Z,610.00
2023-12-27T04:25:29.943Z,611.00
2023-12-27T04:26:30.011Z,611.00
2023-12-27T04:27:30.025Z,609.00
2023-12-27T04:28:29.970Z,610.00
2023-12-27T04:29:29.928Z,608.00
2023-12-27T04:30:30.011Z,610.00
2023-12-27T04:31:29.989Z,609.00
2023-12-27T04:32:30.026Z,609.00
2023-12-27T04:33:30.084Z,609.00
2023-12-27T04:34:30.003Z,611.00
2023-12-27T04:35:29.946Z,609.00
2023-12-27T04:36:30.054Z,609.00
2023-12-27T04:37:30.003Z,611.00
2023-12-27T04:38:30.005Z,610.00
2023-12-27T04:39:30.030Z,609.00
2023-12-27T04:40:29.951Z,609.00
2023-12-27T04:41:30.005Z,609.00
2023-12-27T04:42:29.963Z,610.00
2023-12-27T04:43:29.990Z,610.00
2023-12-27T04:44:29.995Z,609.00
2023-12-27T04:45:30.004Z,609.00
2023-12-27T04:46:29.997Z,608.00
2023-12-27T04:47:30.043Z,608.00
2023-12-27T04:48:30.061Z,609.00
2023-12-27T04:49:37.516Z,600.00
2023-12-27T04:50:37.424Z,600.00
2023-12-27T04:51:37.453Z,600.00
2023-12-27T04:52:37.416Z,600.00
2023-12-27T04:53:37.401Z,600.00
2023-12-27T04:54:37.483Z,601.00
2023-12-27T04:55:37.422Z,600.00
2023-12-27T04:56:37.546Z,600.00
2023-12-27T04:57:37.504Z,600.00
2023-12-27T04:58:37.407Z,601.00
2023-12-27T04:59:37.399Z,604.00
2023-12-27T05:00:37.484Z,603.00
2023-12-27T05:01:37.414Z,602.00
2023-12-27T05:02:37.434Z,600.00
2023-12-27T05:03:37.507Z,601.00
2023-12-27T05:04:37.481Z,601.00
2023-12-27T05:05:37.483Z,603.00
2023-12-27T05:06:37.518Z,602.00
2023-12-27T05:07:37.456Z,602.00
2023-12-27T05:08:37.460Z,602.00
2023-12-27T05:09:37.455Z,601.00
2023-12-27T05:10:37.423Z,603.00
2023-12-27T05:11:37.505Z,600.00
2023-12-27T05:12:37.555Z,600.00
2023-12-27T05:13:37.993Z,601.00
2023-12-27T05:14:37.472Z,602.00
2023-12-27T05:15:37.530Z,601.00
2023-12-27T05:16:37.511Z,600.00
2023-12-27T05:17:37.513Z,600.00
2023-12-27T05:18:37.469Z,603.00
2023-12-27T05:19:37.461Z,602.00
2023-12-27T05:20:37.448Z,603.00
2023-12-27T05:21:37.557Z,604.00
2023-12-27T05:22:37.454Z,602.00
2023-12-27T05:23:37.452Z,602.00
2023-12-27T05:24:37.556Z,602.00
2023-12-27T05:25:37.448Z,601.00
2023-12-27T05:26:37.452Z,602.00
2023-12-27T05:27:37.590Z,602.00
2023-12-27T05:28:37.490Z,602.00
2023-12-27T05:29:37.473Z,602.00
2023-12-27T05:30:37.606Z,602.00
2023-12-27T05:31:37.511Z,601.00
2023-12-27T05:32:37.533Z,600.00
2023-12-27T05:33:37.584Z,602.00
2023-12-27T05:34:37.566Z,602.00
2023-12-27T05:35:37.518Z,602.00
2023-12-27T05:36:37.616Z,600.00
2023-12-27T05:37:37.526Z,602.00
2023-12-27T05:38:37.502Z,602.00
2023-12-27T05:39:37.584Z,601.00
2023-12-27T05:40:37.477Z,601.00
2023-12-27T05:41:37.556Z,601.00
2023-12-27T05:42:37.687Z,601.00
2023-12-27T05:43:37.489Z,602.00
2023-12-27T05:44:37.492Z,602.00
2023-12-27T05:45:37.534Z,601.00
2023-12-27T05:46:37.554Z,602.00
2023-12-27T05:47:37.531Z,600.00
2023-12-27T05:48:37.636Z,601.00
2023-12-27T05:49:37.704Z,601.00
2023-12-27T05:50:37.506Z,602.00
2023-12-27T05:51:37.542Z,600.00
2023-12-27T05:52:37.525Z,600.00
2023-12-27T05:53:37.531Z,601.00
2023-12-27T05:54:37.612Z,601.00
2023-12-27T05:55:37.541Z,600.00
2023-12-27T05:56:37.517Z,604.00
2023-12-27T05:57:37.706Z,604.00
2023-12-27T05:58:37.550Z,603.00
2023-12-27T05:59:37.510Z,602.00
2023-12-27T06:00:37.621Z,604.00
2023-12-27T06:01:37.624Z,600.00
2023-12-27T06:02:37.561Z,602.00
2023-12-27T06:03:37.594Z,600.00
2023-12-27T06:04:37.549Z,602.00
2023-12-27T06:05:37.571Z,600.00
2023-12-27T06:06:37.560Z,602.00
2023-12-27T06:07:37.527Z,603.00
2023-12-27T06:08:37.545Z,603.00
2023-12-27T06:09:37.646Z,600.00
2023-12-27T06:10:37.588Z,603.00
2023-12-27T06:11:37.518Z,602.00
2023-12-27T06:12:37.611Z,603.00
2023-12-27T06:13:37.530Z,602.00
2023-12-27T06:14:37.568Z,602.00
2023-12-27T06:15:37.592Z,603.00
2023-12-27T06:16:37.602Z,602.00
2023-12-27T06:17:37.566Z,603.00
2023-12-27T06:18:37.680Z,601.00
2023-12-27T06:19:37.686Z,600.00
2023-12-27T06:20:37.554Z,600.00
2023-12-27T06:21:37.613Z,600.00
2023-12-27T06:22:37.595Z,602.00
2023-12-27T06:23:37.585Z,602.00
2023-12-27T06:24:37.681Z,602.00
2023-12-27T06:25:37.573Z,603.00
2023-12-27T06:26:38.074Z,603.00
2023-12-27T06:27:37.637Z,602.00
2023-12-27T06:28:37.569Z,603.00
2023-12-27T06:29:37.562Z,602.00
2023-12-27T06:30:37.650Z,600.00
2023-12-27T06:31:37.674Z,600.00
2023-12-27T06:32:37.607Z,601.00
2023-12-27T06:33:37.692Z,601.00
2023-12-27T06:34:37.657Z,601.00
2023-12-27T06:35:37.633Z,602.00
2023-12-27T06:36:37.697Z,600.00
2023-12-27T06:37:39.814Z,602.00
2023-12-27T06:38:37.578Z,601.00
2023-12-27T06:39:37.668Z,600.00
2023-12-27T06:40:37.590Z,600.00
2023-12-27T06:41:38.099Z,601.00
2023-12-27T06:42:37.730Z,600.00
2023-12-27T06:43:37.581Z,603.00
2023-12-27T06:44:37.585Z,600.00
2023-12-27T06:45:37.672Z,602.00
2023-12-27T06:46:37.634Z,602.00
2023-12-27T06:47:37.632Z,600.00
2023-12-27T06:48:37.801Z,601.00
2023-12-27T06:49:37.639Z,600.00
2023-12-27T06:50:37.591Z,601.00
2023-12-27T06:51:37.646Z,602.00
2023-12-27T06:52:37.582Z,601.00
2023-12-27T06:53:37.615Z,601.00
2023-12-27T06:54:37.703Z,602.00
2023-12-27T06:55:37.595Z,600.00
2023-12-27T06:56:38.064Z,600.00
2023-12-27T06:57:37.655Z,601.00
2023-12-27T06:58:37.597Z,600.00
2023-12-27T06:59:37.619Z,601.00
2023-12-27T07:00:37.698Z,601.00
2023-12-27T07:01:37.682Z,602.00
2023-12-27T07:02:37.649Z,602.00
2023-12-27T07:03:37.705Z,601.00
2023-12-27T07:04:37.692Z,601.00
2023-12-27T07:05:37.694Z,603.00
2023-12-27T07:06:37.685Z,604.00
2023-12-27T07:07:37.632Z,602.00
2023-12-27T07:08:37.627Z,603.00
2023-12-27T07:09:37.751Z,601.00
2023-12-27T07:10:37.631Z,602.00
2023-12-27T07:11:37.666Z,601.00
2023-12-27T07:12:37.658Z,603.00
2023-12-27T07:13:37.680Z,601.00
2023-12-27T07:14:37.622Z,602.00
2023-12-27T07:15:37.719Z,602.00
2023-12-27T07:16:37.661Z,601.00
2023-12-27T07:17:37.680Z,602.00
2023-12-27T07:18:37.841Z,602.00
2023-12-27T07:19:37.741Z,602.00
2023-12-27T07:20:37.668Z,603.00
2023-12-27T07:21:38.180Z,601.00
2023-12-27T07:22:37.661Z,601.00
2023-12-27T07:23:37.651Z,600.00
2023-12-27T07:24:37.716Z,603.00
2023-12-27T07:25:37.664Z,602.00
2023-12-27T07:26:37.646Z,602.00
2023-12-27T07:27:37.724Z,602.00
2023-12-27T07:28:37.661Z,600.00
2023-12-27T07:29:37.672Z,602.00
2023-12-27T07:30:37.803Z,603.00
2023-12-27T07:31:37.730Z,601.00
2023-12-27T07:32:37.667Z,602.00
2023-12-27T07:33:37.716Z,601.00
2023-12-27T07:34:37.798Z,602.00
2023-12-27T07:35:37.657Z,603.00
2023-12-27T07:36:37.702Z,602.00
2023-12-27T07:37:37.658Z,603.00
2023-12-27T07:38:37.659Z,603.00
2023-12-27T07:39:37.821Z,603.00
2023-12-27T07:40:37.661Z,602.00
2023-12-27T07:41:37.678Z,602.00
2023-12-27T07:42:37.799Z,601.00
2023-12-27T07:43:37.704Z,603.00
2023-12-27T07:44:37.684Z,601.00
2023-12-27T07:45:37.758Z,602.00
2023-12-27T07:46:37.724Z,601.00
2023-12-27T07:47:37.737Z,602.00
2023-12-27T07:48:37.804Z,601.00
2023-12-27T07:49:37.844Z,603.00
2023-12-27T07:50:37.666Z,602.00
2023-12-27T07:51:37.780Z,601.00
2023-12-27T07:52:37.667Z,601.00
2023-12-27T07:53:37.704Z,601.00
2023-12-27T07:54:37.748Z,603.00
2023-12-27T07:55:37.673Z,601.00
2023-12-27T07:56:37.677Z,603.00
2023-12-27T07:57:37.736Z,602.00
2023-12-27T07:58:37.697Z,600.00
2023-12-27T07:59:37.700Z,600.00
2023-12-27T08:00:37.805Z,602.00
2023-12-27T08:01:37.761Z,602.00
2023-12-27T08:02:37.697Z,602.00
2023-12-27T08:03:37.817Z,603.00
2023-12-27T08:04:37.709Z,604.00
2023-12-27T08:05:37.807Z,602.00
2023-12-27T08:06:38.404Z,603.00
2023-12-27T08:07:38.077Z,602.00
2023-12-27T08:08:37.704Z,602.00
2023-12-27T08:09:37.800Z,602.00
2023-12-27T08:10:37.727Z,602.00
2023-12-27T08:11:37.719Z,603.00
2023-12-27T08:12:38.770Z,604.00
2023-12-27T08:13:37.824Z,602.00
2023-12-27T08:14:37.742Z,602.00
2023-12-27T08:15:37.773Z,603.00
2023-12-27T08:16:37.718Z,604.00
2023-12-27T08:17:37.754Z,601.00
2023-12-27T08:18:37.813Z,602.00
2023-12-27T08:19:37.718Z,603.00
2023-12-27T08:20:37.768Z,601.00
2023-12-27T08:21:37.815Z,601.00
2023-12-27T08:22:37.732Z,602.00
2023-12-27T08:23:37.737Z,601.00
2023-12-27T08:24:37.766Z,601.00
2023-12-27T08:25:37.748Z,602.00
2023-12-27T08:26:37.744Z,600.00
2023-12-27T08:27:37.755Z,602.00
2023-12-27T08:28:37.836Z,601.00
2023-12-27T08:29:39.980Z,601.00
2023-12-27T08:30:37.814Z,604.00
2023-12-27T08:31:37.799Z,602.00
2023-12-27T08:32:37.775Z,604.00
2023-12-27T08:33:37.861Z,602.00
2023-12-27T08:34:37.780Z,603.00
2023-12-27T08:35:37.760Z,600.00
2023-12-27T08:36:37.849Z,602.00
2023-12-27T08:37:38.089Z,602.00
2023-12-27T08:38:37.744Z,603.00
2023-12-27T08:39:37.848Z,602.00
2023-12-27T08:40:37.755Z,601.00
2023-12-27T08:41:37.760Z,601.00
2023-12-27T08:42:37.897Z,601.00
2023-12-27T08:43:37.773Z,602.00
2023-12-27T08:44:37.824Z,602.00
2023-12-27T08:45:37.808Z,601.00
2023-12-27T08:46:37.777Z,602.00
2023-12-27T08:47:37.819Z,602.00
2023-12-27T08:48:37.942Z,603.00
2023-12-27T08:49:37.893Z,603.00
2023-12-27T08:50:37.810Z,604.00
2023-12-27T08:51:37.789Z,603.00
2023-12-27T08:52:37.787Z,602.00
2023-12-27T08:53:37.793Z,604.00
2023-12-27T08:54:37.816Z,604.00
2023-12-27T08:55:37.794Z,602.00
2023-12-27T08:56:37.801Z,604.00
2023-12-27T08:57:37.836Z,605.00
2023-12-27T08:58:37.867Z,604.00
2023-12-27T08:59:37.835Z,607.00
2023-12-27T09:00:37.813Z,606.00
2023-12-27T09:01:37.830Z,605.00
2023-12-27T09:02:37.801Z,604.00
2023-12-27T09:03:37.988Z,606.00
2023-12-27T09:04:37.928Z,603.00
2023-12-27T09:05:37.826Z,606.00
2023-12-27T09:06:37.936Z,604.00
2023-12-27T09:07:38.089Z,607.00
2023-12-27T09:08:37.812Z,606.00
2023-12-27T09:09:37.894Z,604.00
2023-12-27T09:10:37.810Z,603.00
2023-12-27T09:11:41.514Z,603.00
2023-12-27T09:12:37.899Z,603.00
2023-12-27T09:13:37.819Z,603.00
2023-12-27T09:14:37.830Z,604.00
2023-12-27T09:15:37.888Z,604.00
2023-12-27T09:16:37.798Z,606.00
2023-12-27T09:17:37.889Z,603.00
2023-12-27T09:18:38.678Z,604.00
2023-12-27T09:19:37.915Z,605.00
2023-12-27T09:20:37.903Z,604.00
2023-12-27T09:21:38.017Z,606.00
2023-12-27T09:22:37.993Z,603.00
2023-12-27T09:23:38.005Z,603.00
2023-12-27T09:24:38.113Z,604.00
2023-12-27T09:25:38.113Z,605.00
2023-12-27T09:26:38.180Z,605.00
2023-12-27T09:27:38.250Z,601.00
2023-12-27T09:28:38.275Z,607.00
2023-12-27T09:29:38.364Z,606.00
2023-12-27T09:30:38.577Z,606.00
2023-12-27T09:31:38.816Z,603.00
2023-12-27T09:32:38.673Z,603.00
2023-12-27T09:33:38.670Z,605.00
2023-12-27T09:34:38.696Z,603.00
2023-12-27T09:35:38.695Z,603.00
2023-12-27T09:36:38.816Z,605.00
2023-12-27T09:37:38.808Z,607.00
2023-12-27T09:38:40.093Z,609.00
2023-12-27T09:39:39.076Z,604.00
2023-12-27T09:40:38.990Z,604.00
2023-12-27T09:41:39.073Z,606.00
2023-12-27T09:42:39.129Z,600.00
2023-12-27T09:43:39.181Z,607.00
2023-12-27T09:44:39.214Z,605.00
2023-12-27T09:45:39.300Z,603.00
2023-12-27T09:46:39.333Z,609.00
2023-12-27T09:47:39.929Z,607.00
2023-12-27T09:48:39.536Z,603.00
2023-12-27T09:49:39.609Z,604.00
2023-12-27T09:50:39.488Z,606.00
2023-12-27T09:51:39.559Z,607.00
2023-12-27T09:52:39.624Z,606.00
2023-12-27T09:53:39.651Z,606.00
2023-12-27T09:54:39.833Z,606.00
2023-12-27T09:55:40.089Z,603.00
2023-12-27T09:56:39.776Z,605.00
2023-12-27T09:57:39.854Z,605.00
2023-12-27T09:58:39.896Z,607.00
2023-12-27T09:59:40.117Z,607.00
2023-12-27T10:00:39.997Z,601.00
2023-12-27T10:01:40.103Z,606.00
2023-12-27T10:02:40.166Z,606.00
2023-12-27T10:03:40.115Z,606.00
2023-12-27T10:04:40.133Z,606.00
2023-12-27T10:05:40.278Z,605.00
2023-12-27T10:06:40.269Z,603.00
2023-12-27T10:07:40.442Z,607.00
2023-12-27T10:08:40.308Z,604.00
2023-12-27T10:09:40.402Z,602.00
2023-12-27T10:10:40.362Z,606.00
2023-12-27T10:11:40.418Z,605.00
2023-12-27T10:12:40.509Z,603.00
2023-12-27T10:13:40.477Z,609.00
2023-12-27T10:14:40.517Z,604.00
2023-12-27T10:15:40.610Z,607.00
2023-12-27T10:16:40.598Z,605.00
2023-12-27T10:17:40.699Z,608.00
2023-12-27T10:18:40.698Z,605.00
2023-12-27T10:19:40.911Z,604.00
2023-12-27T10:20:40.777Z,605.00
2023-12-27T10:21:40.912Z,608.00
2023-12-27T10:22:41.125Z,604.00
2023-12-27T10:23:40.887Z,606.00
2023-12-27T10:24:41.038Z,605.00
2023-12-27T10:25:40.930Z,604.00
2023-12-27T10:26:40.974Z,606.00
2023-12-27T10:27:41.079Z,607.00
2023-12-27T10:28:41.100Z,606.00
2023-12-27T10:29:41.107Z,608.00
2023-12-27T10:30:41.264Z,601.00
2023-12-27T10:31:41.202Z,608.00
2023-12-27T10:32:41.285Z,604.00
2023-12-27T10:33:41.374Z,607.00
2023-12-27T10:34:41.282Z,605.00
2023-12-27T10:35:41.332Z,601.00
2023-12-27T10:36:41.364Z,606.00
2023-12-27T10:37:41.400Z,602.00
2023-12-27T10:38:41.441Z,603.00
2023-12-27T10:39:41.456Z,598.00
2023-12-27T10:40:41.480Z,600.00
2023-12-27T10:41:41.454Z,607.00
2023-12-27T10:42:41.535Z,608.00
2023-12-27T10:43:41.549Z,610.00
2023-12-27T10:44:41.566Z,603.00
2023-12-27T10:45:41.625Z,606.00
2023-12-27T10:46:41.668Z,607.00
2023-12-27T10:47:41.676Z,603.00
2023-12-27T10:48:41.950Z,611.00
2023-12-27T10:49:41.923Z,605.00
2023-12-27T10:50:41.797Z,604.00
2023-12-27T10:51:41.983Z,605.00
2023-12-27T10:52:41.861Z,608.00
2023-12-27T10:53:41.863Z,604.00
2023-12-27T10:54:41.940Z,610.00
2023-12-27T10:55:41.971Z,605.00
2023-12-27T10:56:41.976Z,604.00
2023-12-27T10:57:42.090Z,604.00
2023-12-27T10:58:42.053Z,605.00
2023-12-27T10:59:42.058Z,606.00
2023-12-27T11:00:42.231Z,604.00
2023-12-27T11:01:42.213Z,605.00
2023-12-27T11:02:42.213Z,606.00
2023-12-27T11:03:42.351Z,608.00
2023-12-27T11:04:42.338Z,607.00
2023-12-27T11:05:42.365Z,609.00
2023-12-27T11:06:42.418Z,604.00
2023-12-27T11:07:42.424Z,604.00
2023-12-27T11:08:44.420Z,608.00
2023-12-27T11:09:42.521Z,605.00
2023-12-27T11:10:42.495Z,608.00
2023-12-27T11:11:42.557Z,608.00
2023-12-27T11:12:42.668Z,608.00
2023-12-27T11:13:42.602Z,609.00
2023-12-27T11:14:42.667Z,601.00
2023-12-27T11:15:42.738Z,604.00
2023-12-27T11:16:42.743Z,611.00
2023-12-27T11:17:42.819Z,609.00
2023-12-27T11:18:42.868Z,607.00
2023-12-27T11:19:42.944Z,606.00
2023-12-27T11:20:42.939Z,606.00
2023-12-27T11:21:43.015Z,604.00
2023-12-27T11:22:42.989Z,605.00
2023-12-27T11:23:43.042Z,605.00
2023-12-27T11:24:43.202Z,605.00
2023-12-27T11:25:43.128Z,604.00
2023-12-27T11:26:43.177Z,609.00
2023-12-27T11:27:43.304Z,609.00
2023-12-27T11:28:43.237Z,608.00
2023-12-27T11:29:43.302Z,608.00
2023-12-27T11:30:43.401Z,608.00
2023-12-27T11:31:43.365Z,607.00
2023-12-27T11:32:43.602Z,609.00
2023-12-27T11:33:43.563Z,605.00
2023-12-27T11:34:43.578Z,605.00
2023-12-27T11:35:43.491Z,604.00
2023-12-27T11:36:43.627Z,611.00
2023-12-27T11:37:43.554Z,608.00
2023-12-27T11:38:43.577Z,607.00
2023-12-27T11:39:43.666Z,606.00
2023-12-27T11:40:43.649Z,608.00
2023-12-27T11:41:43.675Z,612.00
2023-12-27T11:42:44.227Z,605.00
2023-12-27T11:43:43.763Z,607.00
2023-12-27T11:44:44.888Z,605.00
2023-12-27T11:45:44.055Z,604.00
2023-12-27T11:46:43.989Z,607.00
2023-12-27T11:47:44.116Z,608.00
2023-12-27T11:48:44.156Z,609.00
2023-12-27T11:49:44.171Z,606.00
2023-12-27T11:50:44.862Z,605.00
2023-12-27T11:51:44.301Z,606.00
2023-12-27T11:52:44.216Z,600.00
2023-12-27T11:53:44.233Z,604.00
2023-12-27T11:54:44.317Z,604.00
2023-12-27T11:55:44.303Z,602.00
2023-12-27T11:56:44.353Z,603.00
2023-12-27T11:57:44.496Z,602.00
2023-12-27T11:58:44.426Z,606.00
2023-12-27T11:59:44.476Z,608.00
2023-12-27T12:00:44.585Z,603.00
2023-12-27T12:01:44.549Z,607.00
2023-12-27T12:02:44.579Z,608.00
2023-12-27T12:03:44.685Z,607.00
2023-12-27T12:04:44.678Z,600.00
2023-12-27T12:05:44.706Z,609.00
2023-12-27T12:06:44.800Z,607.00
2023-12-27T12:07:44.777Z,604.00
2023-12-27T12:08:44.815Z,607.00
2023-12-27T12:09:44.881Z,604.00
2023-12-27T12:10:44.866Z,607.00
2023-12-27T12:11:44.871Z,608.00
2023-12-27T12:12:45.253Z,611.00
2023-12-27T12:13:44.958Z,606.00
2023-12-27T12:14:45.012Z,603.00
2023-12-27T12:15:45.078Z,606.00
2023-12-27T12:16:45.113Z,606.00
2023-12-27T12:17:45.208Z,607.00
2023-12-27T12:18:45.380Z,604.00
2023-12-27T12:19:45.249Z,606.00
2023-12-27T12:20:45.243Z,606.00
2023-12-27T12:21:45.279Z,610.00
2023-12-27T12:22:45.376Z,610.00
2023-12-27T12:23:45.353Z,605.00
2023-12-27T12:24:45.486Z,608.00
2023-12-27T12:25:45.487Z,611.00
2023-12-27T12:26:45.553Z,608.00
2023-12-27T12:27:45.706Z,606.00
2023-12-27T12:28:45.611Z,609.00
2023-12-27T12:29:45.652Z,611.00